Time;durP1;ratioP1;P1;durP2;ratioP2;P2;SDS_P1;SDS_P2;PMS_P1;PMS_P2;Temp;Humidity;BMP_temperature;BMP_pressure;BME280_temperature;BME280_humidity;BME280_pressure;Samples;Min_cycle;Max_cycle;Signal;HPM_P1;HPM_P2
2024/02/25 00:01:17;;;;;;;8.55;3.70;;;;;;;3.38;100.00;100553.44;5016206;28;20046;-74
2024/02/25 00:03:43;;;;;;;5.53;3.57;;;;;;;3.37;100.00;100554.41;4967289;28;20064;-73
2024/02/25 00:06:13;;;;;;;5.63;3.13;;;;;;;3.37;100.00;100554.41;4982935;28;20057;-73
2024/02/25 00:08:43;;;;;;;6.63;3.28;;;;;;;3.26;100.00;100566.44;5015359;28;20518;-73
2024/02/25 00:11:14;;;;;;;5.63;3.30;;;;;;;3.43;100.00;100568.94;4998600;28;20080;-73
2024/02/25 00:13:44;;;;;;;9.15;3.95;;;;;;;3.37;100.00;100546.53;5021375;28;20754;-73
2024/02/25 00:16:13;;;;;;;6.73;3.90;;;;;;;3.20;100.00;100544.03;5003458;28;20087;-73
2024/02/25 00:18:43;;;;;;;7.10;3.40;;;;;;;3.34;100.00;100554.59;5002337;28;20045;-74
2024/02/25 00:21:12;;;;;;;6.37;4.00;;;;;;;3.32;100.00;100543.31;5035340;28;20057;-74
2024/02/25 00:23:38;;;;;;;4.43;3.10;;;;;;;3.31;100.00;100554.78;4985837;28;20045;-72
2024/02/25 00:26:04;;;;;;;4.43;3.20;;;;;;;3.29;100.00;100587.31;5002284;28;20442;-74
2024/02/25 00:28:34;;;;;;;5.23;2.93;;;;;;;3.32;100.00;100547.75;5020711;28;20057;-74
2024/02/25 00:31:00;;;;;;;5.33;3.53;;;;;;;3.25;100.00;100568.25;5019650;28;20072;-73
2024/02/25 00:33:28;;;;;;;5.30;3.07;;;;;;;3.19;100.00;100560.75;5002090;28;20475;-74
2024/02/25 00:36:00;;;;;;;6.93;3.57;;;;;;;3.17;100.00;100541.59;5004222;28;20520;-74
2024/02/25 00:38:29;;;;;;;8.27;3.47;;;;;;;3.22;100.00;100544.81;5037475;28;20088;-76
2024/02/25 00:40:58;;;;;;;6.83;3.30;;;;;;;3.24;100.00;100542.91;5002711;28;20184;-74
2024/02/25 00:43:28;;;;;;;6.20;3.60;;;;;;;3.25;100.00;100570.03;5003144;28;20088;-76
2024/02/25 00:45:55;;;;;;;5.93;3.30;;;;;;;3.23;100.00;100543.88;5002914;28;20045;-75
2024/02/25 00:48:23;;;;;;;5.10;3.00;;;;;;;3.27;100.00;100537.53;5013090;28;20076;-75
2024/02/25 00:50:48;;;;;;;6.23;3.47;;;;;;;3.20;100.00;100548.44;5006371;28;20040;-74
2024/02/25 00:53:16;;;;;;;7.83;3.23;;;;;;;3.27;100.00;100547.16;5004910;28;20052;-74
2024/02/25 00:55:43;;;;;;;10.70;3.40;;;;;;;3.14;100.00;100544.41;4991048;28;20048;-73
2024/02/25 00:58:11;;;;;;;4.20;3.20;;;;;;;3.18;100.00;100530.16;4984344;28;20638;-72
2024/02/25 01:00:40;;;;;;;7.50;3.30;;;;;;;3.21;100.00;100537.03;4999553;28;20049;-73
2024/02/25 01:03:06;;;;;;;5.57;3.33;;;;;;;3.18;100.00;100532.78;5008153;28;20062;-73
2024/02/25 01:05:33;;;;;;;5.70;3.27;;;;;;;3.13;100.00;100540.09;4943467;28;20054;-73
2024/02/25 01:08:00;;;;;;;5.30;3.40;;;;;;;3.13;100.00;100545.34;4943587;28;20193;-73
2024/02/25 01:10:33;;;;;;;7.53;3.43;;;;;;;3.10;100.00;100540.28;5130492;27;20431;-74
2024/02/25 01:12:59;;;;;;;6.67;3.40;;;;;;;3.07;100.00;100542.22;5059085;28;20040;-75
2024/02/25 01:15:26;;;;;;;7.07;3.40;;;;;;;3.13;100.00;100528.75;5059288;28;20102;-75
2024/02/25 01:17:55;;;;;;;7.17;3.20;;;;;;;3.27;100.00;100539.28;5042827;28;20076;-75
2024/02/25 01:20:22;;;;;;;7.87;4.03;;;;;;;3.10;100.00;100549.91;5018026;28;20053;-75
2024/02/25 01:22:52;;;;;;;5.50;2.97;;;;;;;3.15;100.00;100546.09;5018420;28;20139;-73
2024/02/25 01:25:19;;;;;;;7.13;3.60;;;;;;;3.00;100.00;100570.59;5031160;28;20059;-74
2024/02/25 01:27:45;;;;;;;6.20;3.37;;;;;;;3.12;100.00;100574.31;4998203;28;20057;-72
2024/02/25 01:30:13;;;;;;;8.07;3.20;;;;;;;3.06;100.00;100564.16;4971686;28;20054;-72
2024/02/25 01:32:40;;;;;;;5.37;3.33;;;;;;;3.22;100.00;100547.44;4923997;28;20058;-72
2024/02/25 01:35:11;;;;;;;9.03;3.67;;;;;;;3.16;100.00;100545.16;4939456;28;20054;-73
2024/02/25 01:37:40;;;;;;;7.78;3.33;;;;;;;3.09;100.00;100577.13;4955458;28;20050;-73
2024/02/25 01:40:10;;;;;;;7.10;3.43;;;;;;;3.05;100.00;100578.19;4971166;28;20469;-74
2024/02/25 01:42:39;;;;;;;;;;;;;;;3.20;100.00;100548.44;4925296;28;20137;-75
2024/02/25 01:45:28;;;;;;;4.53;2.90;;;;;;;3.06;100.00;100557.13;4939387;28;19926;-75
2024/02/25 01:47:57;;;;;;;5.60;3.37;;;;;;;3.01;100.00;100582.78;4971423;28;20520;-74
2024/02/25 01:50:25;;;;;;;11.48;3.13;;;;;;;3.03;100.00;100561.69;4912216;29;20529;-76
2024/02/25 01:52:54;;;;;;;5.17;3.20;;;;;;;3.00;100.00;100544.34;4910614;29;20068;-76
2024/02/25 01:55:22;;;;;;;7.13;3.83;;;;;;;3.00;100.00;100561.88;4866231;29;20059;-75
2024/02/25 01:57:48;;;;;;;8.23;4.00;;;;;;;2.97;100.00;100535.81;4860593;29;20052;-76
2024/02/25 02:00:16;;;;;;;5.60;3.67;;;;;;;2.90;100.00;100545.84;4885345;28;20408;-76
2024/02/25 02:02:46;;;;;;;8.83;3.63;;;;;;;3.01;100.00;100551.28;4971383;28;20145;-76
2024/02/25 02:05:18;;;;;;;5.37;3.20;;;;;;;2.91;100.00;100562.41;4956188;28;20058;-76
2024/02/25 02:07:49;;;;;;;6.77;3.37;;;;;;;2.90;100.00;100543.22;4898970;29;20056;-76
2024/02/25 02:10:17;;;;;;;6.80;3.63;;;;;;;2.94;100.00;100555.22;4883303;29;20179;-75
2024/02/25 02:12:46;;;;;;;5.53;3.50;;;;;;;2.97;100.00;100533.19;4913087;29;20056;-75
2024/02/25 02:15:15;;;;;;;11.53;3.43;;;;;;;3.01;100.00;100540.78;4914498;29;20075;-75
2024/02/25 02:18:07;;;;;;;4.93;3.50;;;;;;;3.06;100.00;100562.38;4899173;29;20047;-75
2024/02/25 02:20:44;;;;;;;9.93;3.80;;;;;;;2.89;100.00;100552.00;4914905;29;20063;-77
2024/02/25 02:23:32;;;;;;;5.80;3.33;;;;;;;2.88;100.00;100541.59;4928573;29;20094;-77
2024/02/25 02:26:09;;;;;;;8.33;3.97;;;;;;;2.93;100.00;100547.41;4955513;28;20059;-76
2024/02/25 02:28:38;;;;;;;7.68;3.63;;;;;;;2.92;100.00;100551.81;4919941;29;20159;-77
2024/02/25 02:31:07;;;;;;;5.90;3.43;;;;;;;2.91;100.00;100550.13;4869643;29;20066;-76
2024/02/25 02:33:38;;;;;;;6.63;3.63;;;;;;;2.86;100.00;100562.66;4869860;29;20060;-74
2024/02/25 02:36:07;;;;;;;6.13;3.70;;;;;;;2.82;100.00;100561.16;4932649;29;20047;-74
2024/02/25 02:38:39;;;;;;;7.07;3.60;;;;;;;2.95;100.00;100550.81;4941306;28;20055;-74
2024/02/25 02:41:07;;;;;;;5.27;3.57;;;;;;;2.83;100.00;100591.69;4954447;28;20054;-76
2024/02/25 02:43:41;;;;;;;8.67;3.77;;;;;;;2.85;100.00;100555.72;4933580;29;20142;-75
2024/02/25 02:46:07;;;;;;;7.27;3.97;;;;;;;2.81;100.00;100569.97;4954498;29;20043;-75
2024/02/25 02:48:34;;;;;;;9.40;3.90;;;;;;;2.85;100.00;100566.22;4954254;28;20051;-74
2024/02/25 02:51:02;;;;;;;7.27;4.20;;;;;;;2.81;100.00;100577.84;4961056;28;20495;-74
2024/02/25 02:53:33;;;;;;;6.70;4.00;;;;;;;2.71;100.00;100574.03;4958648;28;20117;-74
2024/02/25 02:56:03;;;;;;;8.17;4.30;;;;;;;2.64;100.00;100567.44;4941941;28;20066;-66
2024/02/25 02:58:29;;;;;;;9.87;4.20;;;;;;;2.75;100.00;100558.97;4927513;28;20432;-77
2024/02/25 03:00:56;;;;;;;6.83;4.10;;;;;;;2.70;100.00;100561.84;4979741;28;20053;-76
2024/02/25 03:03:23;;;;;;;5.80;3.53;;;;;;;2.68;100.00;100563.72;4979427;28;20467;-75
2024/02/25 03:08:40;;;;;;;5.85;3.40;;;;;;;2.92;100.00;100557.06;4973309;28;20061;-81
2024/02/25 03:11:07;;;;;;;10.17;4.07;;;;;;;2.79;100.00;100611.16;4995184;28;20057;-73
2024/02/25 03:13:33;;;;;;;7.10;3.93;;;;;;;2.69;100.00;100554.06;4995664;28;20052;-74
2024/02/25 03:16:02;;;;;;;12.07;4.27;;;;;;;2.86;100.00;100549.53;5012412;28;20594;-77
2024/02/25 03:18:28;;;;;;;9.60;4.10;;;;;;;2.87;100.00;100563.53;4995448;28;20045;-73
2024/02/25 03:20:55;;;;;;;7.53;3.80;;;;;;;2.92;100.00;100562.31;4992037;28;20042;-72
2024/02/25 03:23:21;;;;;;;6.17;4.10;;;;;;;2.76;100.00;100569.38;4992125;28;20124;-74
2024/02/25 03:25:48;;;;;;;7.57;4.20;;;;;;;2.77;100.00;100555.31;4993842;28;20057;-75
2024/02/25 03:28:14;;;;;;;5.50;3.77;;;;;;;2.68;100.00;100560.22;4963706;28;20139;-78
2024/02/25 03:30:43;;;;;;;6.03;3.80;;;;;;;2.79;100.00;100563.09;4979883;28;20120;-76
2024/02/25 03:33:14;;;;;;;10.13;3.90;;;;;;;2.77;100.00;100555.31;4977281;28;20050;-83
2024/02/25 03:35:44;;;;;;;9.67;4.47;;;;;;;2.74;100.00;100560.75;4993810;28;20141;-79
2024/02/25 03:38:11;;;;;;;6.17;3.70;;;;;;;2.72;100.00;100549.47;4943391;28;20046;-77
2024/02/25 03:40:40;;;;;;;9.77;4.50;;;;;;;2.67;100.00;100541.06;4958624;28;20061;-78
2024/02/25 03:43:14;;;;;;;6.30;3.83;;;;;;;2.85;100.00;100532.13;4953813;29;20478;-80
2024/02/25 03:45:42;;;;;;;5.53;3.60;;;;;;;2.92;100.00;100540.50;4922430;29;20066;-78
2024/02/25 03:48:15;;;;;;;9.97;3.90;;;;;;;2.80;100.00;100560.38;4940716;29;20066;-81
2024/02/25 03:50:42;;;;;;;7.13;3.90;;;;;;;2.73;100.00;100535.44;4929030;29;20075;-76
2024/02/25 03:53:13;;;;;;;12.57;4.60;;;;;;;2.80;100.00;100533.31;4896098;29;20079;-81
2024/02/25 03:55:41;;;;;;;10.10;3.93;;;;;;;2.82;100.00;100545.41;4923268;29;20052;-79
2024/02/25 03:58:10;;;;;;;9.80;4.13;;;;;;;2.77;100.00;100557.09;4904526;29;20051;-80
2024/02/25 04:00:40;;;;;;;6.95;4.22;;;;;;;2.63;100.00;100557.88;4880830;29;20052;-81
2024/02/25 04:03:08;;;;;;;7.97;3.90;;;;;;;2.63;100.00;100549.19;4895907;29;20154;-81
2024/02/25 04:05:36;;;;;;;;;;;;;;;2.75;100.00;100569.47;4913340;29;20059;-79
2024/02/25 04:08:05;;;;;;;8.07;3.60;;;;;;;2.57;100.00;100554.78;4913329;29;20306;-80
2024/02/25 04:10:37;;;;;;;5.40;3.70;;;;;;;2.63;100.00;100557.03;4910918;29;20060;-81
2024/02/25 04:13:04;;;;;;;6.23;4.07;;;;;;;2.61;100.00;100557.13;4912227;29;20507;-81
2024/02/25 04:15:29;;;;;;;6.10;4.00;;;;;;;2.53;100.00;100574.19;4897615;29;20136;-82
2024/02/25 04:18:00;;;;;;;8.40;4.23;;;;;;;2.62;100.00;100566.69;4882683;29;20500;-79
2024/02/25 04:20:27;;;;;;;6.00;4.27;;;;;;;2.47;100.00;100580.66;4877622;29;20056;-81
2024/02/25 04:22:54;;;;;;;9.33;3.97;;;;;;;2.62;100.00;100579.78;4902111;29;20052;-80
2024/02/25 04:25:20;;;;;;;10.20;3.83;;;;;;;2.47;100.00;100591.13;4900309;29;20459;-80
2024/02/25 04:27:50;;;;;;;7.37;4.37;;;;;;;2.45;100.00;100579.88;4896111;29;20068;-79
2024/02/25 04:30:17;;;;;;;5.33;3.70;;;;;;;2.44;100.00;100588.69;4880503;29;20056;-80
2024/02/25 04:32:46;;;;;;;7.57;4.07;;;;;;;2.55;100.00;100577.59;4880261;29;20079;-76
2024/02/25 04:35:14;;;;;;;8.40;4.77;;;;;;;2.49;100.00;100602.34;4914701;29;20055;-78
2024/02/25 04:37:40;;;;;;;5.03;4.00;;;;;;;2.50;100.00;100588.34;4923846;29;20128;-79
2024/02/25 04:40:16;;;;;;;6.67;3.70;;;;;;;2.53;100.00;100603.91;4895752;29;20118;-79
2024/02/25 04:42:42;;;;;;;9.47;3.87;;;;;;;2.55;100.00;100604.63;4880614;29;20056;-79
2024/02/25 04:45:09;;;;;;;6.30;4.07;;;;;;;2.52;100.00;100602.19;4917596;28;20520;-80
2024/02/25 04:47:36;;;;;;;6.57;4.07;;;;;;;2.43;100.00;100605.31;4939489;28;20069;-79
2024/02/25 04:50:05;;;;;;;9.53;4.00;;;;;;;2.48;100.00;100629.53;4971533;28;20182;-79
2024/02/25 04:52:34;;;;;;;9.03;4.30;;;;;;;2.52;100.00;100588.25;4933161;29;20107;-78
2024/02/25 04:55:00;;;;;;;5.60;3.60;;;;;;;2.52;100.00;100620.53;4920514;29;20066;-79
2024/02/25 04:57:33;;;;;;;5.97;4.00;;;;;;;2.44;100.00;100593.91;4937086;29;20067;-78
2024/02/25 05:00:00;;;;;;;9.23;3.87;;;;;;;2.39;100.00;100616.91;4936188;29;20059;-78
2024/02/25 05:02:27;;;;;;;7.27;3.83;;;;;;;2.36;100.00;100608.34;4925394;29;20047;-76
2024/02/25 05:04:55;;;;;;;9.60;3.70;;;;;;;2.42;100.00;100610.66;4897223;29;20091;-77
2024/02/25 05:07:21;;;;;;;7.33;4.27;;;;;;;2.41;100.00;100622.94;4910782;29;20051;-73
2024/02/25 05:09:48;;;;;;;7.20;4.23;;;;;;;2.38;100.00;100609.13;4909243;28;20054;-74
2024/02/25 05:12:16;;;;;;;9.60;3.83;;;;;;;2.28;100.00;100614.03;4908723;28;20058;-73
2024/02/25 05:14:46;;;;;;;6.23;3.90;;;;;;;2.36;100.00;100613.59;4910411;28;20203;-74
2024/02/25 05:17:13;;;;;;;6.73;4.30;;;;;;;2.34;100.00;100633.81;4924148;28;20039;-74
2024/02/25 05:19:40;;;;;;;8.43;4.73;;;;;;;2.24;100.00;100620.38;4907315;28;20046;-74
2024/02/25 05:22:07;;;;;;;9.17;4.30;;;;;;;2.36;100.00;100624.94;4923190;28;20511;-74
2024/02/25 05:24:35;;;;;;;7.30;3.60;;;;;;;2.36;100.00;100614.47;4960770;28;20144;-74
2024/02/25 05:27:02;;;;;;;4.00;3.47;;;;;;;2.47;100.00;100606.88;4965053;28;20045;-73
2024/02/25 05:29:34;;;;;;;6.57;3.77;;;;;;;2.36;100.00;100659.03;4997046;28;20079;-73
2024/02/25 05:32:00;;;;;;;5.90;4.23;;;;;;;2.26;100.00;100625.53;5031681;28;20063;-73
2024/02/25 05:34:27;;;;;;;9.47;4.87;;;;;;;2.34;100.00;100628.59;5017788;28;20091;-75
2024/02/25 05:36:54;;;;;;;5.37;3.57;;;;;;;2.34;100.00;100644.31;4992284;28;20172;-74
2024/02/25 05:39:21;;;;;;;6.33;3.80;;;;;;;2.45;100.00;100616.56;4980797;28;20555;-75
2024/02/25 05:41:48;;;;;;;6.97;3.80;;;;;;;2.34;100.00;100624.16;4997193;28;20053;-75
2024/02/25 05:44:15;;;;;;;5.77;3.70;;;;;;;2.27;100.00;100622.81;4954819;28;20153;-75
2024/02/25 05:46:41;;;;;;;8.03;3.77;;;;;;;2.31;100.00;100611.22;4938768;28;20066;-73
2024/02/25 05:49:08;;;;;;;7.37;4.07;;;;;;;2.30;100.00;100624.41;4954555;28;20054;-73
2024/02/25 05:51:35;;;;;;;9.40;3.87;;;;;;;2.16;100.00;100621.69;4939468;28;20069;-74
2024/02/25 05:54:05;;;;;;;7.27;3.80;;;;;;;2.16;100.00;100619.91;4928495;28;20405;-76
2024/02/25 05:56:31;;;;;;;6.07;3.80;;;;;;;2.15;100.00;100623.47;4991607;28;20151;-69
2024/02/25 05:58:57;;;;;;;7.13;3.67;;;;;;;2.23;100.00;100623.06;4944865;28;20046;-73
2024/02/25 06:01:48;;;;;;;8.67;3.63;;;;;;;2.52;100.00;100635.44;4971755;28;20046;-74
2024/02/25 06:04:22;;;;;;;6.07;3.87;;;;;;;2.41;100.00;100643.91;4959173;28;20089;-74
2024/02/25 06:06:58;;;;;;;8.10;3.67;;;;;;;2.55;100.00;100628.25;4955747;28;20454;-75
2024/02/25 06:09:24;;;;;;;7.73;3.87;;;;;;;2.52;100.00;100625.78;4973890;28;20045;-72
2024/02/25 06:11:54;;;;;;;9.60;3.70;;;;;;;2.51;100.00;100625.88;4941902;28;20047;-81
2024/02/25 06:14:20;;;;;;;8.57;3.85;;;;;;;2.44;100.00;100619.28;4939832;28;20050;-73
2024/02/25 06:16:48;;;;;;;5.53;3.33;;;;;;;2.58;100.00;100612.38;4990669;28;20037;-74
2024/02/25 06:19:18;;;;;;;6.73;3.90;;;;;;;2.73;100.00;100608.91;4973619;28;20132;-73
2024/02/25 06:21:44;;;;;;;7.73;3.80;;;;;;;2.71;100.00;100630.88;4964799;28;20054;-73
2024/02/25 06:24:11;;;;;;;5.60;3.73;;;;;;;2.79;100.00;100639.16;4960379;28;20040;-74
2024/02/25 06:26:46;;;;;;;8.07;3.90;;;;;;;2.87;100.00;100634.34;4975387;28;20478;-80
2024/02/25 06:29:12;;;;;;;7.47;3.53;;;;;;;2.76;100.00;100637.56;4965911;28;20037;-76
2024/02/25 06:31:43;;;;;;;6.47;3.63;;;;;;;2.80;100.00;100623.34;4989172;28;20524;-71
2024/02/25 06:34:14;;;;;;;8.70;3.60;;;;;;;2.92;100.00;100633.16;4965751;28;20037;-74
2024/02/25 06:36:40;;;;;;;8.57;3.58;;;;;;;2.79;100.00;100642.66;4952281;28;20064;-79
2024/02/25 06:39:14;;;;;;;5.03;3.40;;;;;;;2.86;100.00;100645.78;4961493;28;20057;-78
2024/02/25 06:41:43;;;;;;;5.53;3.50;;;;;;;2.81;100.00;100680.16;4939906;28;20466;-73
2024/02/25 06:44:09;;;;;;;5.50;3.53;;;;;;;2.71;100.00;100636.97;4956855;28;20167;-75
2024/02/25 06:46:40;;;;;;;6.07;3.67;;;;;;;2.70;100.00;100644.94;4966438;28;20199;-73
2024/02/25 06:49:06;;;;;;;6.60;4.10;;;;;;;2.73;100.00;100648.25;4976679;28;20061;-75
2024/02/25 06:51:34;;;;;;;5.60;3.47;;;;;;;2.82;100.00;100655.59;4983512;28;20137;-72
2024/02/25 06:54:04;;;;;;;7.27;3.53;;;;;;;2.86;100.00;100651.88;4950200;28;20045;-74
2024/02/25 06:56:32;;;;;;;6.67;3.60;;;;;;;2.78;100.00;100640.94;4950181;28;20054;-74
2024/02/25 06:59:05;;;;;;;5.63;3.80;;;;;;;2.92;100.00;100654.13;4975720;28;20435;-73
2024/02/25 07:01:32;;;;;;;6.87;3.00;;;;;;;2.83;100.00;100683.50;4954679;28;20104;-74
2024/02/25 07:04:03;;;;;;;9.43;3.60;;;;;;;2.98;100.00;100647.72;4982270;28;20450;-76
2024/02/25 07:06:35;;;;;;;7.13;4.13;;;;;;;2.99;100.00;100645.00;4957085;28;20149;-74
2024/02/25 07:09:03;;;;;;;5.17;3.20;;;;;;;2.97;100.00;100661.75;4967783;28;20038;-73
2024/02/25 07:11:31;;;;;;;7.30;3.67;;;;;;;2.91;100.00;100660.34;4972596;28;20547;-73
2024/02/25 07:14:00;;;;;;;6.10;3.27;;;;;;;3.00;100.00;100628.31;4973129;28;20050;-73
2024/02/25 07:16:28;;;;;;;5.07;3.20;;;;;;;2.93;100.00;100668.97;4959016;28;20601;-74
2024/02/25 07:18:57;;;;;;;6.33;3.00;;;;;;;2.92;100.00;100635.78;4931827;28;20458;-72
2024/02/25 07:21:30;;;;;;;7.57;3.57;;;;;;;2.79;100.00;100658.38;4924290;28;20070;-73
2024/02/25 07:23:56;;;;;;;6.60;3.20;;;;;;;2.86;100.00;100636.13;4938887;28;20098;-73
2024/02/25 07:26:25;;;;;;;6.30;3.33;;;;;;;2.93;100.00;100647.97;4953901;28;20118;-72
2024/02/25 07:28:54;;;;;;;5.83;3.53;;;;;;;2.94;100.00;100640.94;4876789;28;20158;-73
2024/02/25 07:31:25;;;;;;;5.33;2.90;;;;;;;3.08;100.00;100662.88;4910600;29;20086;-73
2024/02/25 07:33:51;;;;;;;5.77;3.30;;;;;;;2.93;100.00;100644.50;4905767;29;20582;-77
2024/02/25 07:36:17;;;;;;;9.57;3.90;;;;;;;2.98;100.00;100651.16;4897409;29;20300;-76
2024/02/25 07:38:43;;;;;;;8.83;3.83;;;;;;;3.13;100.00;100638.97;4912344;29;20075;-74
2024/02/25 07:41:16;;;;;;;4.37;3.03;;;;;;;3.17;100.00;100641.34;4871738;29;20479;-77
2024/02/25 07:43:48;;;;;;;7.67;3.90;;;;;;;3.33;100.00;100639.53;4852700;29;20094;-78
2024/02/25 07:46:29;;;;;;;6.40;4.07;;;;;;;3.12;100.00;100646.00;4857932;29;20509;-74
2024/02/25 07:49:03;;;;;;;7.20;3.30;;;;;;;3.25;100.00;100648.78;4862363;29;20049;-73
2024/02/25 07:51:43;;;;;;;5.33;3.50;;;;;;;3.28;100.00;100657.34;4911568;29;20056;-76
2024/02/25 07:54:11;;;;;;;6.38;3.45;;;;;;;3.28;100.00;100648.59;4854793;29;20050;-75
2024/02/25 07:56:45;;;;;;;4.13;3.20;;;;;;;3.47;100.00;100636.13;4824589;29;20061;-78
2024/02/25 07:59:12;;;;;;;3.43;2.73;;;;;;;3.48;100.00;100630.78;4840910;29;20136;-78
2024/02/25 08:01:39;;;;;;;6.07;3.07;;;;;;;3.49;100.00;100647.34;4833471;29;20084;-77
2024/02/25 08:04:05;;;;;;;9.73;3.90;;;;;;;3.52;100.00;100641.97;4859576;29;20530;-76
2024/02/25 08:06:35;;;;;;;8.87;3.70;;;;;;;3.65;100.00;100621.03;4858809;29;20054;-75
2024/02/25 08:09:02;;;;;;;4.72;3.28;;;;;;;3.58;100.00;100604.81;4881242;29;20135;-77
2024/02/25 08:11:29;;;;;;;7.93;3.80;;;;;;;3.62;100.00;100626.47;4907855;29;20064;-75
2024/02/25 08:14:02;;;;;;;6.53;3.60;;;;;;;3.86;100.00;100640.81;4910833;29;20060;-73
2024/02/25 08:16:33;;;;;;;6.47;3.50;;;;;;;3.69;100.00;100646.22;4879674;29;20516;-74
2024/02/25 08:19:16;;;;;;;;;;;;;;;3.92;100.00;100643.06;4895259;29;20064;-76
2024/02/25 08:21:45;;;;;;;5.80;3.23;;;;;;;3.72;100.00;100640.78;4895693;29;19929;-75
2024/02/25 08:24:20;;;;;;;5.90;3.60;;;;;;;3.83;100.00;100654.13;4876874;29;20397;-75
2024/02/25 08:26:59;;;;;;;11.13;4.00;;;;;;;3.74;100.00;100638.91;4832153;29;20480;-75
2024/02/25 08:29:28;;;;;;;9.30;4.40;;;;;;;3.73;100.00;100635.44;4861651;29;20056;-74
2024/02/25 08:31:59;;;;;;;8.53;3.83;;;;;;;3.74;100.00;100691.47;4831577;29;20053;-76
2024/02/25 08:34:32;;;;;;;5.63;3.50;;;;;;;3.58;100.00;100665.22;4861632;29;20053;-74
2024/02/25 08:37:01;;;;;;;7.53;3.30;;;;;;;3.58;100.00;100659.97;4861395;29;20060;-76
2024/02/25 08:39:35;;;;;;;7.40;3.77;;;;;;;3.58;100.00;100657.34;4907224;29;20055;-74
2024/02/25 08:42:07;;;;;;;7.13;3.70;;;;;;;3.52;100.00;100665.59;4917805;29;20059;-75
2024/02/25 08:44:42;;;;;;;7.37;4.07;;;;;;;3.36;100.00;100649.00;4925402;29;20047;-74
2024/02/25 08:47:21;;;;;;;5.93;3.77;;;;;;;3.33;100.00;100655.31;4968330;28;20062;-76
2024/02/25 08:50:00;;;;;;;6.40;3.80;;;;;;;3.21;100.00;100649.91;4984386;28;20054;-75
2024/02/25 08:52:31;;;;;;;6.27;3.90;;;;;;;3.13;100.00;100652.09;4971987;28;20054;-75
2024/02/25 08:55:15;;;;;;;6.80;3.37;;;;;;;3.32;100.00;100648.34;4960502;28;20049;-73
2024/02/25 08:57:43;;;;;;;9.50;3.90;;;;;;;3.09;100.00;100669.78;4958662;28;20054;-74
2024/02/25 09:00:12;;;;;;;7.00;3.60;;;;;;;3.24;100.00;100653.16;4958477;28;20504;-73
2024/02/25 09:02:40;;;;;;;6.33;3.77;;;;;;;3.15;100.00;100669.44;4974951;28;20046;-73
2024/02/25 09:05:27;;;;;;;9.33;3.73;;;;;;;3.30;100.00;100673.84;4974709;28;20054;-73
2024/02/25 09:07:59;;;;;;;11.90;3.73;;;;;;;3.28;100.00;100680.97;4972439;28;20144;-73
2024/02/25 09:10:26;;;;;;;6.83;3.10;;;;;;;3.17;100.00;100695.59;4970980;28;20416;-73
2024/02/25 09:12:53;;;;;;;5.57;3.53;;;;;;;3.23;100.00;100698.75;4954589;28;20124;-72
2024/02/25 09:15:32;;;;;;;4.77;3.40;;;;;;;3.36;100.00;100678.75;4955282;28;20054;-73
2024/02/25 09:18:03;;;;;;;5.80;3.00;;;;;;;3.40;100.00;100679.41;4955023;28;20429;-72
2024/02/25 09:20:37;;;;;;;5.50;3.33;;;;;;;3.60;100.00;100673.03;4971594;28;20050;-72
2024/02/25 09:23:09;;;;;;;5.30;3.07;;;;;;;3.69;100.00;100670.69;4967984;28;20740;-72
2024/02/25 09:25:44;;;;;;;8.10;3.67;;;;;;;3.80;100.00;100673.53;4954919;28;20055;-72
2024/02/25 09:28:16;;;;;;;6.83;3.37;;;;;;;3.72;100.00;100675.75;4942462;28;20211;-74
2024/02/25 09:30:45;;;;;;;4.33;3.30;;;;;;;3.58;100.00;100699.38;4991833;28;20065;-72
2024/02/25 09:33:14;;;;;;;8.57;3.20;;;;;;;3.69;100.00;100678.56;4979946;28;20050;-72
2024/02/25 09:35:40;;;;;;;5.40;3.27;;;;;;;3.70;100.00;100687.28;4918257;29;20056;-72
2024/02/25 09:38:11;;;;;;;5.40;3.70;;;;;;;3.77;100.00;100696.53;4898090;29;20587;-72
2024/02/25 09:40:44;;;;;;;6.50;3.53;;;;;;;3.68;100.00;100679.50;4898555;29;20136;-75
2024/02/25 09:43:15;;;;;;;8.00;3.70;;;;;;;3.57;100.00;100691.59;4882149;29;20196;-72
2024/02/25 09:45:43;;;;;;;5.50;3.63;;;;;;;3.61;100.00;100703.59;4898412;29;20060;-72
2024/02/25 09:48:11;;;;;;;7.53;3.87;;;;;;;3.65;100.00;100681.47;4897900;29;20147;-73
2024/02/25 09:51:05;;;;;;;15.17;4.57;;;;;;;3.85;100.00;100658.34;4897774;29;20064;-72
2024/02/25 09:53:36;;;;;;;4.97;2.90;;;;;;;4.07;100.00;100656.13;4937924;29;20055;-72
2024/02/25 09:56:07;;;;;;;5.47;3.20;;;;;;;4.19;100.00;100665.06;4906451;29;20155;-73
2024/02/25 09:58:53;;;;;;;6.87;3.40;;;;;;;4.29;100.00;100663.56;4905390;29;20056;-73
2024/02/25 10:01:22;;;;;;;5.93;3.10;;;;;;;4.43;100.00;100653.88;4936160;29;20047;-72
2024/02/25 10:03:48;;;;;;;8.13;3.80;;;;;;;4.55;100.00;100647.03;4896532;28;20605;-73
2024/02/25 10:06:18;;;;;;;12.10;5.17;;;;;;;5.37;100.00;100651.31;4926760;28;20050;-73
2024/02/25 10:08:49;;;;;;;4.00;3.28;;;;;;;6.27;100.00;100644.28;4942709;28;20051;-73
2024/02/25 10:11:25;;;;;;;7.25;3.80;;;;;;;6.44;100.00;100676.44;4931945;28;20078;-73
2024/02/25 10:13:56;;;;;;;5.07;3.17;;;;;;;5.99;100.00;100649.78;4911468;29;20047;-73
2024/02/25 10:16:26;;;;;;;3.65;2.85;;;;;;;6.19;100.00;100650.09;4933032;29;20063;-74
2024/02/25 10:19:00;;;;;;;4.88;3.15;;;;;;;5.95;100.00;100669.41;4954621;29;20051;-73
2024/02/25 10:21:27;;;;;;;4.78;3.55;;;;;;;5.68;100.00;100669.41;4954636;28;20485;-72
2024/02/25 10:23:56;;;;;;;5.32;3.60;;;;;;;5.22;100.00;100681.28;4938612;28;20154;-73
2024/02/25 10:26:32;;;;;;;10.70;3.38;;;;;;;4.88;100.00;100703.66;4930507;29;20059;-73
2024/02/25 10:29:23;;;;;;;4.93;3.40;;;;;;;4.57;100.00;100660.91;4953460;28;20137;-74
2024/02/25 10:31:58;;;;;;;5.32;3.65;;;;;;;4.48;100.00;100672.84;4902890;29;20047;-73
2024/02/25 10:34:27;;;;;;;4.47;3.17;;;;;;;4.13;100.00;100644.41;4920462;29;20059;-73
2024/02/25 10:36:53;;;;;;;7.93;3.40;;;;;;;4.24;100.00;100636.69;4922768;29;20077;-72
2024/02/25 10:39:20;;;;;;;4.73;3.50;;;;;;;4.24;100.00;100652.47;4934893;29;20051;-71
2024/02/25 10:41:46;;;;;;;4.80;3.40;;;;;;;4.23;100.00;100646.38;4918320;29;20131;-71
2024/02/25 10:44:13;;;;;;;5.93;3.83;;;;;;;4.31;100.00;100673.03;4918486;29;20135;-72
2024/02/25 10:46:38;;;;;;;5.00;3.05;;;;;;;4.35;100.00;100647.41;4932322;29;20461;-71
2024/02/25 10:49:06;;;;;;;5.07;3.33;;;;;;;4.55;100.00;100642.59;4937904;29;20138;-72
2024/02/25 10:51:36;;;;;;;6.10;3.50;;;;;;;4.51;100.00;100642.88;4954367;28;20050;-72
2024/02/25 10:54:04;;;;;;;5.63;3.33;;;;;;;4.44;100.00;100654.72;4953817;29;20398;-71
2024/02/25 10:56:30;;;;;;;4.30;3.10;;;;;;;4.53;100.00;100641.00;4938063;29;20074;-73
2024/02/25 10:58:57;;;;;;;5.23;3.20;;;;;;;4.57;100.00;100640.72;4953650;28;20063;-71
2024/02/25 11:01:24;;;;;;;4.57;3.60;;;;;;;4.48;100.00;100645.69;4921718;28;20034;-72
2024/02/25 11:03:51;;;;;;;5.87;3.20;;;;;;;4.47;100.00;100644.03;4937132;29;20062;-72
2024/02/25 11:06:30;;;;;;;6.57;3.03;;;;;;;4.54;100.00;100646.16;4953689;29;20051;-71
2024/02/25 11:09:12;;;;;;;5.07;3.23;;;;;;;4.48;100.00;100648.31;4927747;29;20047;-73
2024/02/25 11:11:39;;;;;;;5.23;3.00;;;;;;;4.35;100.00;100644.78;4937716;29;20142;-72
2024/02/25 11:14:10;;;;;;;4.90;3.47;;;;;;;4.32;100.00;100645.78;4953467;29;20146;-72
2024/02/25 11:16:39;;;;;;;8.40;3.30;;;;;;;4.21;100.00;100650.91;4954368;28;20263;-73
2024/02/25 11:19:15;;;;;;;5.30;2.97;;;;;;;4.25;100.00;100643.63;4976587;28;20038;-72
2024/02/25 11:21:41;;;;;;;4.93;2.60;;;;;;;4.37;100.00;100679.69;4998699;28;20473;-75
2024/02/25 11:24:12;;;;;;;8.73;3.17;;;;;;;4.40;100.00;100642.69;5040840;28;20136;-72
2024/02/25 11:26:40;;;;;;;6.63;2.80;;;;;;;4.35;100.00;100640.34;5068941;28;20445;-73
2024/02/25 11:29:24;;;;;;;3.97;2.83;;;;;;;4.60;100.00;100631.78;5038345;28;20177;-73
2024/02/25 11:32:00;;;;;;;4.23;2.63;;;;;;;4.59;100.00;100638.84;5035191;28;20049;-72
2024/02/25 11:34:26;;;;;;;3.40;2.63;;;;;;;4.64;100.00;100634.13;5065893;28;20051;-72
2024/02/25 11:36:57;;;;;;;5.73;2.80;;;;;;;4.64;100.00;100631.47;5072411;28;20048;-72
2024/02/25 11:39:27;;;;;;;4.97;2.73;;;;;;;4.67;100.00;100622.56;5072162;28;20109;-74
2024/02/25 11:41:57;;;;;;;3.63;2.50;;;;;;;4.80;100.00;100634.00;5073381;28;20044;-72